Time;durP1;ratioP1;P1;durP2;ratioP2;P2;SDS_P1;SDS_P2;PMS_P1;PMS_P2;Temp;Humidity;BMP_temperature;BMP_pressure;BME280_temperature;BME280_humidity;BME280_pressure;Samples;Min_cycle;Max_cycle;Signal;HPM_P1;HPM_P2
2022/01/27 00:00:46;;;;;;;99.35;38.65;;;;;;;;;;5157003;28;20052;-78
2022/01/27 00:05:59;;;;;;;103.03;36.53;;;;;;;;;;5164383;28;20052;-80
2022/01/27 00:08:42;;;;;;;100.50;39.83;;;2.30;99.90;;;;;;5151988;28;20893;-79
2022/01/27 00:11:15;;;;;;;88.75;35.50;;;;;;;;;;5146792;28;20069;-80
2022/01/27 00:13:56;;;;;;;97.43;38.75;;;;;;;;;;5163045;28;20057;-80
2022/01/27 00:16:31;;;;;;;92.53;36.28;;;;;;;;;;5143877;28;20057;-80
2022/01/27 00:19:04;;;;;;;96.13;38.72;;;;;;;;;;5146339;28;20044;-81
2022/01/27 00:21:37;;;;;;;97.97;38.05;;;2.20;99.90;;;;;;5152094;28;20044;-79
2022/01/27 00:24:10;;;;;;;92.93;39.78;;;;;;;;;;5147666;28;20053;-82
2022/01/27 00:26:43;;;;;;;99.10;38.25;;;;;;;;;;5167839;28;20044;-78
2022/01/27 00:29:16;;;;;;;96.78;38.17;;;;;;;;;;5169057;28;20811;-80
2022/01/27 00:31:49;;;;;;;89.35;35.60;;;;;;;;;;5163259;28;20056;-80
2022/01/27 00:34:22;;;;;;;96.20;38.38;;;;;;;;;;5148049;28;20041;-79
2022/01/27 00:36:54;;;;;;;95.05;37.67;;;;;;;;;;5171702;28;20060;-81
2022/01/27 00:39:27;;;;;;;95.43;40.03;;;;;;;;;;5161514;28;20053;-79
2022/01/27 00:42:00;;;;;;;92.97;36.13;;;;;;;;;;5166789;28;20043;-80
2022/01/27 00:44:32;;;;;;;94.18;37.55;;;;;;;;;;5145228;28;21646;-79
2022/01/27 00:47:05;;;;;;;93.13;38.60;;;;;;;;;;5165902;28;20397;-80
2022/01/27 00:49:38;;;;;;;97.97;38.27;;;;;;;;;;5166572;28;20053;-77
2022/01/27 00:52:16;;;;;;;93.97;37.63;;;;;;;;;;5165022;28;20044;-80
2022/01/27 00:54:50;;;;;;;91.70;38.30;;;;;;;;;;5167300;28;20049;-80
2022/01/27 01:00:21;;;;;;;101.20;38.60;;;;;;;;;;5162545;28;20711;-81
2022/01/27 01:03:01;;;;;;;99.25;38.65;;;;;;;;;;5180317;28;20037;-79
2022/01/27 01:33:14;;;;;;;91.63;37.30;;;;;;;;;;5192294;28;20068;-79
2022/01/27 01:35:48;;;;;;;96.30;39.35;;;;;;;;;;5169281;28;20112;-79
2022/01/27 01:38:24;;;;;;;95.78;38.05;;;1.90;99.90;;;;;;5171963;28;21597;-78
2022/01/27 01:40:58;;;;;;;93.00;39.25;;;1.80;99.90;;;;;;5172135;28;20068;-79
2022/01/27 01:43:31;;;;;;;100.20;39.50;;;;;;;;;;5190111;28;20049;-79
2022/01/27 01:46:04;;;;;;;100.28;39.13;;;;;;;;;;5186424;28;20055;-78
2022/01/27 01:48:37;;;;;;;93.88;37.42;;;;;;;;;;5174505;28;20053;-82
2022/01/27 01:51:11;;;;;;;94.37;39.63;;;1.60;99.90;;;;;;5187382;28;20056;-78
2022/01/27 01:53:44;;;;;;;94.57;38.30;;;;;;;;;;5189479;28;20986;-79
2022/01/27 01:56:16;;;;;;;91.32;38.42;;;;;;;;;;5177679;28;20049;-80
2022/01/27 01:58:49;;;;;;;97.95;39.70;;;;;;;;;;5192667;28;20049;-83
2022/01/27 02:01:22;;;;;;;93.95;36.90;;;;;;;;;;5144234;28;20049;-79
2022/01/27 02:03:55;;;;;;;99.63;40.30;;;;;;;;;;5155334;28;20045;-79
2022/01/27 02:06:34;;;;;;;91.38;36.72;;;;;;;;;;5141860;28;20474;-78
2022/01/27 02:20:19;;;;;;;91.10;35.80;;;;;;;;;;5169245;28;20056;-79
2022/01/27 02:22:51;;;;;;;;;;;1.30;99.90;;;;;;5166218;28;20042;-79
2022/01/27 02:25:24;;;;;;;88.80;35.38;;;;;;;;;;5156708;28;19929;-79
2022/01/27 02:27:58;;;;;;;93.13;37.10;;;1.20;99.90;;;;;;5170626;28;20049;-78
2022/01/27 02:30:30;;;;;;;90.88;37.67;;;;;;;;;;5165813;28;20053;-81
2022/01/27 02:33:03;;;;;;;100.97;41.67;;;;;;;;;;5173199;28;20496;-78
2022/01/27 02:35:36;;;;;;;93.38;37.15;;;;;;;;;;5162743;28;20049;-77
2022/01/27 02:38:09;;;;;;;97.43;37.83;;;;;;;;;;5150774;28;20060;-78
2022/01/27 02:40:48;;;;;;;98.82;38.80;;;1.20;99.90;;;;;;5164159;28;20052;-80
2022/01/27 02:43:21;;;;;;;101.50;39.22;;;;;;;;;;5169480;28;20045;-78
2022/01/27 02:45:54;;;;;;;108.20;40.88;;;;;;;;;;5149584;28;20063;-80
2022/01/27 02:48:27;;;;;;;96.07;36.67;;;;;;;;;;5167577;28;20048;-80
2022/01/27 02:50:59;;;;;;;97.60;38.77;;;;;;;;;;5165190;28;20049;-80
2022/01/27 02:53:32;;;;;;;95.10;37.80;;;;;;;;;;5165380;28;20049;-79
2022/01/27 02:56:06;;;;;;;108.43;41.53;;;1.00;99.90;;;;;;5170696;28;20045;-79
2022/01/27 02:58:38;;;;;;;102.70;39.28;;;;;;;;;;5171156;28;20041;-78
2022/01/27 03:01:11;;;;;;;99.47;40.25;;;;;;;;;;5160367;28;20049;-80
2022/01/27 03:03:44;;;;;;;99.27;36.87;;;;;;;;;;5163170;28;20654;-78
2022/01/27 03:06:17;;;;;;;101.23;38.70;;;;;;;;;;5164826;28;20052;-78
2022/01/27 03:08:49;;;;;;;106.73;43.03;;;;;;;;;;5134102;28;20768;-79
2022/01/27 03:11:44;;;;;;;91.15;37.25;;;0.80;99.90;;;;;;5148304;28;20056;-79
2022/01/27 03:14:20;;;;;;;92.82;37.25;;;0.80;99.90;;;;;;5147889;28;20425;-81
2022/01/27 03:16:56;;;;;;;93.10;38.28;;;0.80;99.90;;;;;;5151368;28;20524;-78
2022/01/27 03:19:29;;;;;;;94.38;38.83;;;;;;;;;;5165111;28;20069;-81
2022/01/27 03:22:03;;;;;;;96.43;39.50;;;;;;;;;;5166069;28;20630;-79
2022/01/27 03:24:36;;;;;;;98.05;37.53;;;0.70;99.90;;;;;;5143055;28;20051;-79
2022/01/27 03:27:22;;;;;;;;;;;0.70;99.90;;;;;;5144791;28;20048;-79
2022/01/27 03:29:55;;;;;;;89.63;36.15;;;;;;;;;;5164935;28;19925;-78
2022/01/27 03:32:28;;;;;;;95.17;39.37;;;;;;;;;;5164266;28;20045;-81
2022/01/27 03:35:01;;;;;;;96.45;37.85;;;;;;;;;;5163611;28;20192;-77
2022/01/27 03:37:34;;;;;;;98.28;39.50;;;;;;;;;;5168597;28;20045;-80
2022/01/27 03:40:07;;;;;;;106.20;40.50;;;;;;;;;;5171593;28;20531;-78
2022/01/27 03:42:49;;;;;;;91.70;36.75;;;;;;;;;;5156497;28;20057;-79
2022/01/27 03:45:22;;;;;;;94.40;38.50;;;;;;;;;;5170588;28;20046;-80
2022/01/27 03:47:55;;;;;;;93.57;39.43;;;;;;;;;;5138790;28;20033;-78
2022/01/27 03:50:28;;;;;;;90.13;37.13;;;;;;;;;;5171587;28;20049;-79
2022/01/27 03:53:00;;;;;;;92.88;37.05;;;;;;;;;;5177150;28;20040;-79
2022/01/27 03:55:33;;;;;;;90.65;38.15;;;;;;;;;;5159688;28;20045;-80
2022/01/27 03:58:06;;;;;;;102.38;39.38;;;;;;;;;;5133530;28;20045;-77
2022/01/27 04:00:39;;;;;;;94.60;39.08;;;;;;;;;;5164625;28;20394;-78
2022/01/27 04:03:16;;;;;;;91.97;36.73;;;;;;;;;;5165821;28;20053;-78
2022/01/27 04:05:53;;;;;;;94.78;37.75;;;;;;;;;;5169780;28;20310;-79
2022/01/27 04:08:25;;;;;;;98.13;36.88;;;;;;;;;;5154452;28;20052;-78
2022/01/27 04:10:58;;;;;;;103.53;37.80;;;;;;;;;;5170646;28;20487;-77
2022/01/27 04:13:31;;;;;;;89.28;36.40;;;;;;;;;;5148390;28;20064;-78
2022/01/27 04:16:04;;;;;;;91.17;36.40;;;0.50;99.90;;;;;;5176156;28;20052;-79
2022/01/27 04:18:37;;;;;;;95.60;36.63;;;;;;;;;;5181769;28;20045;-79
2022/01/27 04:21:10;;;;;;;89.80;36.10;;;;;;;;;;5179456;28;20061;-79
2022/01/27 04:23:43;;;;;;;91.70;37.15;;;;;;;;;;5147699;28;20045;-80
2022/01/27 04:26:19;;;;;;;96.72;36.67;;;;;;;;;;5149137;28;20053;-78
2022/01/27 04:28:53;;;;;;;96.90;38.45;;;;;;;;;;5157302;28;20052;-78
2022/01/27 04:31:27;;;;;;;87.65;35.97;;;0.50;99.90;;;;;;5171520;28;20053;-79
2022/01/27 04:34:00;;;;;;;88.55;37.28;;;;;;;;;;5184624;28;20050;-79
2022/01/27 04:36:35;;;;;;;93.77;38.77;;;;;;;;;;5198342;28;20037;-78
2022/01/27 04:41:56;;;;;;;85.53;35.08;;;;;;;;;;5206306;28;20513;-80
2022/01/27 04:44:47;;;;;;;83.65;35.55;;;;;;;;;;5203333;28;20048;-78
2022/01/27 04:47:28;;;;;;;90.05;35.53;;;;;;;;;;5196041;28;20056;-79
2022/01/27 04:50:01;;;;;;;89.60;36.95;;;;;;;;;;5204174;28;20412;-77
2022/01/27 04:52:38;;;;;;;92.55;36.58;;;;;;;;;;5178441;28;20045;-78
2022/01/27 04:55:14;;;;;;;82.78;35.13;;;;;;;;;;5198288;28;20045;-77
2022/01/27 04:57:54;;;;;;;83.18;34.90;;;;;;;;;;5194195;28;20508;-79
2022/01/27 05:00:27;;;;;;;81.30;35.58;;;;;;;;;;5196705;28;20029;-78
2022/01/27 05:03:02;;;;;;;80.00;35.17;;;;;;;;;;5175210;28;20068;-79
2022/01/27 05:05:37;;;;;;;85.63;36.55;;;;;;;;;;5173886;28;20048;-79
2022/01/27 05:08:16;;;;;;;82.28;35.60;;;;;;;;;;5193731;28;20052;-78
2022/01/27 05:11:53;;;;;;;76.03;33.00;;;;;;;;;;5174427;28;20682;-76
2022/01/27 05:13:58;;;;;;;81.38;34.53;;;;;;;;;;5166593;28;20072;-78
2022/01/27 05:16:31;;;;;;;80.38;33.97;;;;;;;;;;5193788;28;20538;-77
2022/01/27 05:19:04;;;;;;;77.47;35.13;;;;;;;;;;5202977;28;20067;-78
2022/01/27 05:21:37;;;;;;;78.68;35.33;;;;;;;;;;5177528;28;20040;-77
2022/01/27 05:24:10;;;;;;;78.78;35.65;;;0.40;99.90;;;;;;5191003;28;20045;-79
2022/01/27 05:26:43;;;;;;;80.70;33.30;;;;;;;;;;5185945;28;20969;-78
2022/01/27 05:29:16;;;;;;;75.67;32.67;;;;;;;;;;5188937;28;20053;-81
2022/01/27 05:31:49;;;;;;;85.07;33.47;;;;;;;;;;5170140;28;20515;-77
2022/01/27 05:34:22;;;;;;;81.57;35.15;;;;;;;;;;5174548;28;21235;-79
2022/01/27 05:36:55;;;;;;;72.68;33.40;;;;;;;;;;5146403;28;20539;-78
2022/01/27 05:39:30;;;;;;;79.75;33.13;;;;;;;;;;5150827;28;20052;-79
2022/01/27 05:42:03;;;;;;;79.23;34.60;;;0.30;99.90;;;;;;5167779;28;20041;-79
2022/01/27 05:44:36;;;;;;;79.65;34.60;;;;;;;;;;5165787;28;20045;-77
2022/01/27 05:47:09;;;;;;;69.28;31.52;;;;;;;;;;5159680;28;20140;-78
2022/01/27 05:49:41;;;;;;;75.95;33.72;;;;;;;;;;5173645;28;20056;-78
2022/01/27 05:52:14;;;;;;;76.03;33.28;;;;;;;;;;5184079;28;22297;-80
2022/01/27 05:54:47;;;;;;;75.95;33.78;;;;;;;;;;5154105;28;20060;-78
2022/01/27 05:57:20;;;;;;;75.05;32.38;;;;;;;;;;5184046;28;20056;-78
2022/01/27 05:59:53;;;;;;;79.40;34.00;;;;;;;;;;5192537;28;20751;-79
2022/01/27 06:02:25;;;;;;;83.87;34.80;;;;;;;;;;5189241;28;21546;-78
2022/01/27 06:05:02;;;;;;;81.67;33.23;;;;;;;;;;5179604;28;20037;-77
2022/01/27 06:07:35;;;;;;;78.78;33.92;;;;;;;;;;5183387;28;20049;-77
2022/01/27 06:10:07;;;;;;;81.00;34.67;;;;;;;;;;5172585;28;20432;-76
2022/01/27 06:12:56;;;;;;;76.55;33.83;;;0.20;99.90;;;;;;5185946;28;20415;-78
2022/01/27 06:15:29;;;;;;;74.50;32.47;;;;;;;;;;5189280;28;20041;-78
2022/01/27 06:18:02;;;;;;;74.88;34.58;;;;;;;;;;5191648;28;20037;-77
2022/01/27 06:20:36;;;;;;;84.33;35.30;;;;;;;;;;5173385;28;20416;-77
2022/01/27 06:23:09;;;;;;;73.55;32.38;;;;;;;;;;5169057;28;20041;-76
2022/01/27 06:25:42;;;;;;;81.43;34.97;;;;;;;;;;5192030;28;20049;-77
2022/01/27 06:28:14;;;;;;;75.93;31.98;;;;;;;;;;5190357;28;20412;-77
2022/01/27 06:30:47;;;;;;;79.00;33.80;;;;;;;;;;5191760;28;20045;-78
2022/01/27 06:33:20;;;;;;;74.00;33.77;;;;;;;;;;5194182;28;20053;-78
2022/01/27 06:35:53;;;;;;;76.60;33.83;;;;;;;;;;5182329;28;20048;-78
2022/01/27 06:38:26;;;;;;;73.53;33.40;;;;;;;;;;5176168;28;20049;-77
2022/01/27 06:40:58;;;;;;;75.72;35.58;;;;;;;;;;5184789;28;20492;-79
2022/01/27 06:43:31;;;;;;;72.15;32.72;;;;;;;;;;5202529;28;20962;-78
2022/01/27 06:46:04;;;;;;;77.82;34.00;;;;;;;;;;5187963;28;20060;-78
2022/01/27 06:48:37;;;;;;;79.95;33.70;;;;;;;;;;5203204;28;20050;-77
2022/01/27 06:51:10;;;;;;;80.40;33.63;;;;;;;;;;5175921;28;20045;-78
2022/01/27 06:53:42;;;;;;;74.47;33.83;;;;;;;;;;5202481;28;20496;-78
2022/01/27 06:56:15;;;;;;;72.28;33.13;;;;;;;;;;5208741;28;20053;-78
2022/01/27 06:58:48;;;;;;;74.07;30.37;;;;;;;;;;5196595;28;20540;-77
2022/01/27 07:01:20;;;;;;;77.82;33.47;;;;;;;;;;5215038;28;20050;-78
2022/01/27 07:03:53;;;;;;;77.05;34.17;;;;;;;;;;5204063;28;20504;-79
2022/01/27 07:06:26;;;;;;;74.07;31.67;;;;;;;;;;5213479;28;20045;-77
2022/01/27 07:08:59;;;;;;;76.10;33.23;;;;;;;;;;5210264;28;20041;-78
2022/01/27 07:11:32;;;;;;;71.53;31.55;;;;;;;;;;5208172;28;20057;-77
2022/01/27 07:14:05;;;;;;;74.50;31.73;;;;;;;;;;5187074;28;20049;-78
2022/01/27 07:16:38;;;;;;;71.00;31.60;;;;;;;;;;5209942;28;20025;-79
2022/01/27 07:19:11;;;;;;;69.15;30.05;;;;;;;;;;5207819;28;20041;-78
2022/01/27 07:21:43;;;;;;;70.63;31.65;;;;;;;;;;5209958;28;20049;-78
2022/01/27 07:24:16;;;;;;;65.97;30.05;;;;;;;;;;5190297;28;20053;-77
2022/01/27 07:26:49;;;;;;;68.63;29.95;;;;;;;;;;5190275;28;20048;-77
2022/01/27 07:29:21;;;;;;;73.25;31.85;;;;;;;;;;5209910;28;20547;-79
2022/01/27 07:31:54;;;;;;;63.58;29.35;;;;;;;;;;5205091;28;20150;-78
2022/01/27 07:34:27;;;;;;;73.20;30.73;;;;;;;;;;5200655;28;20052;-78
2022/01/27 07:37:02;;;;;;;66.78;29.73;;;;;;;;;;5181787;28;20056;-77
2022/01/27 07:39:34;;;;;;;75.30;33.78;;;;;;;;;;5206355;28;20492;-76
2022/01/27 07:42:07;;;;;;;66.22;31.98;;;;;;;;;;5200851;28;20046;-76
2022/01/27 07:44:40;;;;;;;71.40;29.93;;;;;;;;;;5186765;28;20049;-78
2022/01/27 07:47:12;;;;;;;64.38;29.85;;;;;;;;;;5198098;28;20049;-78
2022/01/27 07:49:45;;;;;;;65.38;30.42;;;;;;;;;;5203277;28;20056;-75
2022/01/27 07:52:19;;;;;;;61.53;28.63;;;;;;;;;;5182282;28;20059;-77
2022/01/27 07:54:52;;;;;;;73.13;30.75;;;;;;;;;;5202517;28;20052;-75
2022/01/27 07:57:24;;;;;;;66.22;29.67;;;;;;;;;;5198392;28;21267;-79
2022/01/27 07:59:57;;;;;;;67.40;29.53;;;;;;;;;;5189841;28;20045;-78
2022/01/27 08:02:30;;;;;;;58.97;28.23;;;;;;;;;;5199843;28;20037;-77
2022/01/27 08:05:03;;;;;;;59.42;26.60;;;;;;;;;;5178064;28;20040;-78
2022/01/27 08:07:36;;;;;;;65.13;27.83;;;;;;;;;;5199432;28;20049;-77
2022/01/27 08:10:08;;;;;;;62.17;27.25;;;;;;;;;;5202298;28;20049;-78
2022/01/27 08:12:42;;;;;;;50.93;23.07;;;0.00;99.90;;;;;;5200729;28;20045;-78
2022/01/27 08:15:19;;;;;;;55.75;25.83;;;;;;;;;;5168931;28;20060;-78
2022/01/27 08:17:51;;;;;;;62.60;26.48;;;;;;;;;;5175145;28;20485;-76
2022/01/27 08:20:24;;;;;;;59.30;27.90;;;;;;;;;;5203300;28;20037;-77
2022/01/27 08:22:57;;;;;;;60.67;29.65;;;;;;;;;;5200404;28;20415;-78
2022/01/27 08:25:30;;;;;;;63.92;29.55;;;;;;;;;;5178880;28;20041;-79
2022/01/27 08:28:06;;;;;;;63.00;28.33;;;;;;;;;;5197520;28;20049;-78
2022/01/27 08:30:45;;;;;;;54.47;25.95;;;;;;;;;;5194164;28;20045;-78
2022/01/27 08:33:19;;;;;;;53.60;26.55;;;;;;;;;;5174265;28;20049;-78
2022/01/27 08:35:51;;;;;;;56.95;24.58;;;;;;;;;;5199469;28;20068;-76
2022/01/27 08:38:25;;;;;;;52.25;23.30;;;;;;;;;;5203549;28;20464;-80
2022/01/27 08:40:59;;;;;;;39.58;19.92;;;;;;;;;;5204691;28;20420;-78
2022/01/27 08:43:32;;;;;;;47.03;22.42;;;;;;;;;;5203736;28;20041;-79
2022/01/27 08:46:05;;;;;;;43.97;20.42;;;;;;;;;;5204359;28;20539;-78
2022/01/27 08:48:40;;;;;;;42.90;20.80;;;;;;;;;;5200657;28;20631;-80
2022/01/27 08:51:14;;;;;;;38.15;19.85;;;;;;;;;;5170332;28;20370;-78
2022/01/27 08:54:06;;;;;;;;;;;1.40;99.90;;;;;;5203803;28;20937;-78
2022/01/27 08:56:40;;;;;;;31.42;15.35;;;;;;;;;;5185856;28;19925;-79
2022/01/27 08:59:12;;;;;;;34.72;17.23;;;;;;;;;;5201795;28;20049;-79
2022/01/27 09:01:45;;;;;;;36.25;18.55;;;;;;;;;;5204603;28;20050;-79
2022/01/27 09:04:19;;;;;;;32.30;15.35;;;;;;;;;;5202724;28;20051;-81
2022/01/27 09:06:51;;;;;;;32.83;15.10;;;;;;;;;;5182512;28;20045;-79
2022/01/27 09:09:24;;;;;;;31.13;14.67;;;;;;;;;;5201448;28;20068;-79
2022/01/27 09:11:58;;;;;;;25.35;13.15;;;;;;;;;;5187298;28;20049;-78
2022/01/27 09:14:31;;;;;;;26.55;12.13;;;;;;;;;;5202101;28;20060;-78
2022/01/27 09:17:04;;;;;;;34.92;16.42;;;;;;;;;;5201263;28;20278;-79
2022/01/27 09:19:41;;;;;;;29.13;14.13;;;2.90;99.90;;;;;;5202228;28;20052;-80
2022/01/27 09:22:16;;;;;;;24.02;12.88;;;2.90;99.90;;;;;;5204595;28;20052;-79
2022/01/27 09:25:04;;;;;;;33.85;15.82;;;;;;;;;;5205582;28;20049;-78
2022/01/27 09:27:37;;;;;;;31.23;15.68;;;3.10;99.90;;;;;;5189572;28;20049;-80
2022/01/27 09:30:12;;;;;;;28.45;13.05;;;3.20;99.90;;;;;;5179142;28;20064;-80
2022/01/27 09:32:45;;;;;;;23.85;12.15;;;;;;;;;;5208361;28;20048;-78
2022/01/27 09:35:18;;;;;;;26.38;13.73;;;;;;;;;;5206231;28;20053;-78
2022/01/27 09:37:51;;;;;;;23.40;11.57;;;;;;;;;;5189728;28;20049;-79
2022/01/27 09:40:23;;;;;;;20.63;11.35;;;;;;;;;;5207760;28;20052;-78
2022/01/27 09:42:56;;;;;;;23.07;13.43;;;;;;;;;;5208788;28;20041;-78
2022/01/27 09:45:30;;;;;;;22.83;11.37;;;;;;;;;;5207204;28;20050;-79
2022/01/27 09:48:12;;;;;;;;;;;3.70;95.60;;;;;;5209166;28;20041;-79
2022/01/27 09:53:29;;;;;;;23.58;12.60;;;;;;;;;;5209097;28;20068;-78
2022/01/27 09:56:02;;;;;;;19.73;9.48;;;;;;;;;;5194295;28;20496;-79
2022/01/27 09:58:34;;;;;;;20.95;9.90;;;;;;;;;;5212258;28;20049;-79
2022/01/27 10:01:07;;;;;;;15.85;9.20;;;;;;;;;;5176602;28;21746;-78
2022/01/27 10:03:58;;;;;;;14.82;8.02;;;4.40;91.30;;;;;;5211538;28;20045;-78
2022/01/27 10:06:32;;;;;;;13.88;7.30;;;4.50;91.20;;;;;;5198248;28;20054;-78
2022/01/27 10:09:14;;;;;;;14.48;7.60;;;4.70;90.80;;;;;;5214029;28;20049;-79
2022/01/27 10:11:48;;;;;;;14.73;7.53;;;4.90;90.50;;;;;;5213205;28;20640;-76
2022/01/27 10:14:35;;;;;;;11.27;5.10;;;5.00;89.70;;;;;;5210868;28;20049;-78
2022/01/27 10:17:12;;;;;;;12.95;5.75;;;5.10;88.90;;;;;;5181410;28;20052;-77
2022/01/27 10:19:53;;;;;;;10.98;5.75;;;5.20;88.20;;;;;;5191809;28;20071;-78
2022/01/27 10:22:25;;;;;;;12.18;5.15;;;;;;;;;;5193589;28;20435;-77
2022/01/27 10:25:00;;;;;;;11.77;5.17;;;5.20;86.00;;;;;;5211756;28;20037;-77
2022/01/27 10:27:45;;;;;;;11.35;4.60;;;;;;;;;;5199452;28;20045;-79
2022/01/27 10:33:03;;;;;;;9.13;4.55;;;5.70;83.20;;;;;;5209669;28;20919;-78
2022/01/27 10:35:37;;;;;;;7.82;4.80;;;;;;;;;;5209958;28;20057;-80
2022/01/27 10:38:12;;;;;;;15.25;5.00;;;;;;;;;;5199622;28;20072;-78
2022/01/27 10:40:49;;;;;;;10.48;4.22;;;5.90;80.50;;;;;;5209850;28;20060;-80
2022/01/27 10:43:24;;;;;;;11.40;6.40;;;5.90;80.90;;;;;;5210371;28;20045;-77
2022/01/27 10:46:04;;;;;;;14.82;5.32;;;5.90;79.40;;;;;;5194569;28;20542;-79
2022/01/27 10:48:48;;;;;;;8.20;3.97;;;6.10;78.70;;;;;;5210133;28;20393;-77
2022/01/27 10:51:32;;;;;;;11.07;4.18;;;;;;;;;;5185656;28;20061;-78
2022/01/27 10:54:06;;;;;;;5.13;2.55;;;;;;;;;;5209524;28;20045;-77
2022/01/27 10:56:39;;;;;;;8.77;2.80;;;6.30;74.00;;;;;;5200788;28;20057;-78
2022/01/27 10:59:17;;;;;;;5.90;2.78;;;6.50;72.70;;;;;;5207550;28;20056;-80
2022/01/27 11:01:51;;;;;;;4.78;2.40;;;6.50;71.20;;;;;;5210955;28;20810;-76
2022/01/27 11:04:33;;;;;;;6.05;3.03;;;6.60;69.20;;;;;;5211274;28;20642;-77
2022/01/27 11:07:11;;;;;;;5.53;2.47;;;6.70;67.80;;;;;;5211770;28;21018;-78
2022/01/27 11:09:44;;;;;;;4.15;2.25;;;;;;;;;;5210485;28;20613;-79
2022/01/27 11:12:18;;;;;;;2.67;2.03;;;;;;;;;;5200601;28;20420;-79
2022/01/27 11:14:54;;;;;;;5.18;2.60;;;;;;;;;;5196279;28;20053;-77
2022/01/27 11:17:32;;;;;;;5.88;2.78;;;;;;;;;;5212985;28;20049;-77
2022/01/27 11:20:27;;;;;;;4.10;2.45;;;;;;;;;;5195042;28;20045;-78
2022/01/27 11:23:23;;;;;;;3.40;2.25;;;;;;;;;;5212196;28;20045;-80
2022/01/27 11:25:55;;;;;;;4.72;2.92;;;7.10;66.90;;;;;;5213202;28;20412;-78
2022/01/27 11:28:28;;;;;;;5.15;2.83;;;;;;;;;;5211237;28;20049;-78
2022/01/27 11:31:13;;;;;;;5.93;3.03;;;7.20;67.00;;;;;;5170046;28;20072;-79
2022/01/27 11:34:00;;;;;;;6.40;2.30;;;7.20;66.70;;;;;;5212507;28;20489;-79
2022/01/27 11:36:33;;;;;;;3.47;2.00;;;;;;;;;;5209812;28;20037;-79
2022/01/27 11:39:11;;;;;;;4.57;2.47;;;7.30;65.70;;;;;;5193885;28;20053;-79
2022/01/27 11:41:49;;;;;;;8.52;2.53;;;;;;;;;;5211169;28;20052;-78
2022/01/27 11:44:32;;;;;;;3.50;2.47;;;7.50;64.90;;;;;;5197728;28;20053;-77
2022/01/27 11:47:13;;;;;;;7.83;2.83;;;7.50;65.80;;;;;;5213698;28;20056;-79
2022/01/27 11:49:53;;;;;;;6.88;2.33;;;7.50;64.10;;;;;;5195337;28;20045;-78
2022/01/27 11:52:31;;;;;;;6.28;2.63;;;7.60;64.40;;;;;;5215201;28;20075;-78
2022/01/27 11:55:25;;;;;;;6.63;3.00;;;7.60;62.80;;;;;;5216838;28;20060;-79
2022/01/27 11:58:19;;;;;;;7.47;3.00;;;7.60;61.30;;;;;;5197904;28;20536;-78
2022/01/27 12:01:27;;;;;;;11.32;3.15;;;7.70;62.70;;;;;;5212486;28;20045;-79
2022/01/27 12:04:04;;;;;;;5.45;3.10;;;7.70;61.60;;;;;;5214501;28;20071;-78
2022/01/27 12:06:41;;;;;;;10.43;3.38;;;7.80;60.60;;;;;;5211299;28;20045;-78
2022/01/27 12:09:19;;;;;;;6.50;2.92;;;7.80;61.20;;;;;;5196125;28;20060;-78
2022/01/27 12:11:55;;;;;;;10.20;3.15;;;7.90;58.50;;;;;;5209535;28;20052;-77
2022/01/27 12:14:33;;;;;;;8.13;3.20;;;7.90;59.50;;;;;;5210225;28;20053;-79
2022/01/27 12:17:08;;;;;;;8.05;3.22;;;7.80;59.10;;;;;;5209446;28;20045;-78
2022/01/27 12:19:58;;;;;;;8.85;3.00;;;7.80;59.70;;;;;;5195729;28;20041;-75
2022/01/27 12:22:45;;;;;;;6.05;3.35;;;7.60;59.70;;;;;;5174864;28;20747;-76
2022/01/27 12:25:20;;;;;;;9.68;3.53;;;9.10;63.70;;;;;;5180072;28;20053;-75
2022/01/27 12:27:55;;;;;;;7.95;3.75;;;9.70;60.90;;;;;;5176430;28;21017;-75
2022/01/27 12:30:28;;;;;;;8.77;3.53;;;7.70;60.20;;;;;;5169673;28;20056;-77
2022/01/27 12:33:00;;;;;;;9.05;3.60;;;7.70;62.20;;;;;;5201365;28;20055;-78
2022/01/27 12:35:33;;;;;;;5.82;2.85;;;7.80;63.10;;;;;;5174113;28;20534;-77
2022/01/27 12:38:05;;;;;;;8.98;3.10;;;7.80;63.20;;;;;;5193786;28;20060;-77
2022/01/27 12:40:38;;;;;;;4.95;2.80;;;7.80;62.80;;;;;;5156628;28;20050;-77
2022/01/27 12:43:14;;;;;;;5.55;2.90;;;7.90;60.00;;;;;;5195346;28;20045;-78
2022/01/27 12:45:47;;;;;;;9.43;3.40;;;7.90;60.70;;;;;;5205076;28;20033;-77
2022/01/27 12:48:25;;;;;;;4.45;2.88;;;7.90;58.60;;;;;;5196987;28;20068;-78
2022/01/27 12:51:00;;;;;;;8.85;3.50;;;7.90;58.60;;;;;;5177966;28;20056;-79
2022/01/27 12:53:33;;;;;;;9.20;3.05;;;8.00;61.20;;;;;;5177345;28;20044;-79
2022/01/27 12:56:08;;;;;;;5.53;3.23;;;8.00;59.60;;;;;;5190698;28;20056;-78
2022/01/27 12:58:40;;;;;;;7.05;2.85;;;7.90;59.20;;;;;;5197847;28;20396;-78
2022/01/27 13:01:13;;;;;;;7.25;3.20;;;7.90;59.60;;;;;;5196862;28;20508;-77
2022/01/27 13:04:01;;;;;;;9.07;3.92;;;7.90;59.60;;;;;;5186361;28;20036;-79
2022/01/27 13:06:33;;;;;;;15.85;5.40;;;7.90;59.30;;;;;;5197494;28;20056;-77
2022/01/27 13:09:13;;;;;;;13.32;6.70;;;7.90;60.80;;;;;;5199488;28;20048;-78
2022/01/27 13:11:48;;;;;;;10.30;5.10;;;7.90;60.30;;;;;;5178982;28;20033;-76
2022/01/27 13:14:21;;;;;;;13.18;5.80;;;7.20;59.70;;;;;;5184169;28;20053;-77
2022/01/27 13:17:03;;;;;;;11.70;5.57;;;7.80;61.20;;;;;;5194527;28;20053;-77
2022/01/27 13:19:46;;;;;;;11.95;5.72;;;7.80;61.10;;;;;;5185237;28;20496;-78
2022/01/27 13:22:27;;;;;;;14.52;5.32;;;7.70;61.30;;;;;;5206573;28;20041;-79
2022/01/27 13:25:01;;;;;;;10.23;5.50;;;7.70;63.00;;;;;;5205898;28;20052;-78
2022/01/27 13:27:34;;;;;;;14.32;6.65;;;7.70;63.20;;;;;;5198744;28;20045;-79
2022/01/27 13:30:07;;;;;;;11.77;6.75;;;7.60;63.90;;;;;;5200677;28;20049;-78
2022/01/27 13:32:39;;;;;;;12.55;7.18;;;7.60;64.10;;;;;;5208735;28;20420;-78
2022/01/27 13:35:12;;;;;;;14.35;8.07;;;7.50;64.40;;;;;;5208505;28;20053;-79
2022/01/27 13:37:44;;;;;;;18.65;9.20;;;7.50;65.50;;;;;;5198746;28;20053;-77
2022/01/27 13:43:21;;;;;;;17.67;9.32;;;7.30;67.70;;;;;;5189111;28;20681;-78
2022/01/27 13:45:53;;;;;;;19.30;9.98;;;7.30;67.50;;;;;;5167803;28;20484;-77
2022/01/27 13:48:26;;;;;;;21.08;10.98;;;7.20;68.30;;;;;;5170431;28;20049;-78
2022/01/27 13:50:59;;;;;;;18.40;9.90;;;7.20;68.60;;;;;;5194440;28;20044;-79
2022/01/27 13:53:32;;;;;;;21.70;10.82;;;7.10;70.80;;;;;;5180918;28;20052;-77
2022/01/27 13:56:05;;;;;;;24.13;11.25;;;7.10;70.30;;;;;;5195200;28;20052;-78
2022/01/27 13:58:37;;;;;;;24.40;11.75;;;7.00;70.30;;;;;;5192010;28;20060;-78
2022/01/27 14:01:13;;;;;;;23.58;11.65;;;7.00;71.00;;;;;;5189063;28;20056;-78
2022/01/27 14:03:49;;;;;;;27.02;13.38;;;7.00;71.40;;;;;;5169061;28;20546;-78
2022/01/27 14:06:22;;;;;;;24.20;12.43;;;6.90;71.10;;;;;;5191853;28;20053;-79
2022/01/27 14:08:58;;;;;;;28.70;14.23;;;6.90;72.30;;;;;;5178363;28;20068;-78
2022/01/27 14:11:35;;;;;;;29.02;14.05;;;6.80;71.70;;;;;;5160835;28;20049;-77
2022/01/27 14:14:08;;;;;;;25.63;13.55;;;6.70;71.40;;;;;;5175926;28;20044;-78
2022/01/27 14:16:42;;;;;;;28.63;13.65;;;7.80;72.10;;;;;;5152756;28;20056;-79
2022/01/27 14:19:17;;;;;;;27.92;14.32;;;6.60;72.10;;;;;;5168967;28;20053;-80
2022/01/27 14:21:49;;;;;;;26.65;12.75;;;6.50;73.20;;;;;;5141961;28;20045;-80
2022/01/27 14:25:01;;;;;;;27.83;13.60;;;6.50;74.50;;;;;;5168156;28;20046;-78
2022/01/27 14:27:44;;;;;;;25.00;12.98;;;6.50;74.00;;;;;;5157057;28;20132;-81
2022/01/27 14:30:17;;;;;;;20.05;10.05;;;6.50;73.80;;;;;;5167337;28;20049;-79
2022/01/27 14:32:49;;;;;;;25.77;12.73;;;6.40;75.00;;;;;;5179158;28;20049;-80
2022/01/27 14:35:23;;;;;;;23.13;11.25;;;6.40;76.20;;;;;;5193513;28;20049;-79
2022/01/27 14:37:57;;;;;;;22.45;12.02;;;6.50;78.10;;;;;;5197622;28;21028;-79
2022/01/27 14:40:31;;;;;;;24.88;13.27;;;6.50;76.50;;;;;;5204046;28;20052;-79
2022/01/27 14:43:04;;;;;;;28.08;14.23;;;6.50;76.00;;;;;;5200681;28;20045;-78
2022/01/27 14:45:36;;;;;;;29.35;14.90;;;6.50;76.00;;;;;;5177438;28;20571;-80
2022/01/27 14:48:31;;;;;;;35.38;14.25;;;6.40;74.00;;;;;;5184522;28;20041;-80
2022/01/27 14:51:04;;;;;;;26.85;13.27;;;6.30;75.00;;;;;;5198127;28;20052;-78
2022/01/27 14:53:37;;;;;;;36.40;14.93;;;6.30;76.50;;;;;;5184187;28;20049;-78
2022/01/27 14:56:09;;;;;;;29.17;14.70;;;6.20;75.00;;;;;;5196330;28;20060;-82
2022/01/27 14:58:42;;;;;;;28.00;13.98;;;6.10;74.50;;;;;;5196209;28;20052;-81
2022/01/27 15:01:14;;;;;;;29.50;14.38;;;5.90;75.10;;;;;;5176118;28;20041;-79
2022/01/27 15:03:47;;;;;;;30.38;15.35;;;5.80;75.90;;;;;;5189375;28;20038;-79
2022/01/27 15:06:19;;;;;;;28.15;15.48;;;5.80;75.40;;;;;;5173234;28;20057;-80
2022/01/27 15:08:54;;;;;;;30.88;15.55;;;5.60;75.70;;;;;;5194010;28;20520;-80
2022/01/27 15:11:26;;;;;;;35.63;15.88;;;5.50;76.10;;;;;;5189970;28;20040;-78
2022/01/27 15:18:48;;;;;;;29.52;14.05;;;5.50;75.80;;;;;;5161521;28;20944;-80
2022/01/27 15:19:58;;;;;;;34.33;15.10;;;5.40;78.30;;;;;;5164010;28;20056;-80
2022/01/27 15:22:32;;;;;;;29.42;14.80;;;5.40;77.60;;;;;;5173424;28;20852;-79